Time;durP1;ratioP1;P1;durP2;ratioP2;P2;SDS_P1;SDS_P2;PMS_P1;PMS_P2;Temp;Humidity;BMP_temperature;BMP_pressure;BME280_temperature;BME280_humidity;BME280_pressure;Samples;Min_cycle;Max_cycle;Signal;HPM_P1;HPM_P2
2024/01/17 05:46:16;;;;;;;13.55;7.97;;;;;;;-0.10;100.00;99429.91;5781604;24;20161;-76
2024/01/17 05:48:41;;;;;;;13.93;7.57;;;;;;;-0.22;100.00;99427.94;4790858;29;20070;-76
2024/01/17 05:51:07;;;;;;;12.40;8.40;;;;;;;-0.15;100.00;99426.56;4800606;29;20027;-76
2024/01/17 05:53:32;;;;;;;14.50;8.25;;;;;;;-0.26;100.00;99427.00;4793527;29;20401;-76
2024/01/17 05:55:57;;;;;;;17.48;8.27;;;;;;;-0.21;100.00;99409.50;4794999;29;20050;-76
2024/01/17 05:58:23;;;;;;;18.13;8.27;;;;;;;-0.26;100.00;99410.50;4793976;29;20050;-76
2024/01/17 06:00:48;;;;;;;13.23;7.65;;;;;;;-0.28;100.00;99399.03;4786368;29;20043;-76
2024/01/17 06:03:14;;;;;;;13.70;8.40;;;;;;;-0.58;100.00;99405.88;4794016;29;20447;-76
2024/01/17 06:05:39;;;;;;;14.77;7.05;;;;;;;-0.33;100.00;99393.78;4797017;29;20117;-76
2024/01/17 06:08:06;;;;;;;12.85;8.02;;;;;;;-0.63;100.00;99395.91;4794166;29;20084;-76
2024/01/17 06:10:31;;;;;;;12.32;7.82;;;;;;;-0.38;100.00;99404.19;4795002;29;20031;-76
2024/01/17 06:12:56;;;;;;;9.68;7.53;;;;;;;-0.48;100.00;99394.44;4793944;29;20104;-76
2024/01/17 06:15:22;;;;;;;9.32;7.32;;;;;;;-0.29;100.00;99383.72;4795554;29;20035;-78
2024/01/17 06:17:47;;;;;;;12.07;7.28;;;;;;;-0.53;100.00;99378.16;4790465;29;20448;-77
2024/01/17 06:20:12;;;;;;;10.52;6.75;;;;;;;-0.39;100.00;99373.16;4792806;29;20174;-77
2024/01/17 06:22:38;;;;;;;15.25;7.75;;;;;;;-0.59;100.00;99368.50;4790865;29;20041;-77
2024/01/17 06:25:07;;;;;;;12.38;7.90;;;;;;;-0.57;100.00;99368.97;4793614;29;20490;-76
2024/01/17 06:27:32;;;;;;;10.68;7.47;;;;;;;-0.48;100.00;99369.69;4786978;29;20040;-76
2024/01/17 06:29:58;;;;;;;12.88;6.90;;;;;;;-0.60;100.00;99375.97;4786743;29;20083;-77
2024/01/17 06:32:23;;;;;;;9.13;6.82;;;;;;;-0.85;100.00;99366.84;4791921;29;20122;-76
2024/01/17 06:34:48;;;;;;;10.95;7.43;;;;;;;-0.73;100.00;99366.88;4795570;29;20031;-76
2024/01/17 06:37:14;;;;;;;10.95;6.18;;;;;;;-0.68;100.00;99350.16;4786705;29;20078;-76
2024/01/17 06:39:39;;;;;;;12.38;6.93;;;;;;;-0.65;100.00;99348.72;4792145;29;20074;-77
2024/01/17 06:42:05;;;;;;;12.18;6.35;;;;;;;-0.65;100.00;99352.25;4791246;29;20482;-76
2024/01/17 06:44:30;;;;;;;11.23;7.30;;;;;;;-0.58;100.00;99339.91;4790934;29;20058;-76
2024/01/17 06:46:56;;;;;;;22.02;7.35;;;;;;;-0.64;100.00;99345.59;4784418;29;20505;-76
2024/01/17 06:49:22;;;;;;;13.10;7.25;;;;;;;-0.69;100.00;99340.34;4774151;29;20071;-77
2024/01/17 06:51:50;;;;;;;8.70;6.13;;;;;;;-0.54;100.00;99335.34;4780221;29;20042;-76
2024/01/17 06:54:16;;;;;;;14.23;7.22;;;;;;;-0.64;100.00;99334.63;4773754;29;20039;-77
2024/01/17 06:56:41;;;;;;;15.43;6.43;;;;;;;-0.53;100.00;99334.19;4777823;29;20436;-78
2024/01/17 06:59:06;;;;;;;9.50;7.43;;;;;;;-0.04;100.00;99328.72;4779477;29;20039;-79
2024/01/17 07:01:35;;;;;;;13.55;8.00;;;;;;;-0.30;100.00;99327.09;4779610;30;20058;-78
2024/01/17 07:04:00;;;;;;;12.18;7.50;;;;;;;-0.56;100.00;99329.38;4780799;30;20031;-78
2024/01/17 07:06:25;;;;;;;15.50;7.13;;;;;;;-0.50;100.00;99330.75;4777156;30;20092;-78
2024/01/17 07:08:53;;;;;;;12.50;7.18;;;;;;;-0.48;100.00;99325.72;4778126;29;20068;-78
2024/01/17 07:11:18;;;;;;;11.60;6.18;;;;;;;-0.53;100.00;99332.22;4782311;29;20475;-78
2024/01/17 07:13:44;;;;;;;15.10;7.10;;;;;;;-0.55;100.00;99328.22;4780026;29;20094;-77
2024/01/17 07:16:13;;;;;;;10.32;7.32;;;;;;;-0.56;100.00;99330.16;4776988;30;20436;-76
2024/01/17 07:18:38;;;;;;;10.43;6.75;;;;;;;-0.49;100.00;99319.41;4767752;29;20291;-78
2024/01/17 07:21:06;;;;;;;14.43;6.93;;;;;;;-0.75;100.00;99319.72;4771139;29;20031;-77
2024/01/17 07:23:32;;;;;;;9.75;5.43;;;;;;;-0.82;100.00;99325.78;4773280;29;20570;-78
2024/01/17 07:25:58;;;;;;;12.38;7.13;;;;;;;-0.98;100.00;99313.81;4775667;29;20039;-79
2024/01/17 07:28:23;;;;;;;10.50;6.80;;;;;;;-0.98;100.00;99318.50;4778756;29;20066;-77
2024/01/17 07:30:48;;;;;;;9.90;6.28;;;;;;;-0.93;100.00;99310.84;4780516;29;20028;-78
2024/01/17 07:33:14;;;;;;;12.07;7.05;;;;;;;-1.18;100.00;99304.50;4778505;30;20069;-78
2024/01/17 07:35:39;;;;;;;11.82;6.72;;;;;;;-1.27;100.00;99296.31;4772199;29;20100;-76
2024/01/17 07:38:04;;;;;;;11.15;7.13;;;;;;;-0.91;100.00;99283.84;4774281;29;20110;-76
2024/01/17 07:40:30;;;;;;;11.48;8.68;;;;;;;-0.89;100.00;99273.31;4775632;29;20379;-77
2024/01/17 07:42:55;;;;;;;10.63;7.28;;;;;;;-0.97;100.00;99285.22;4772993;29;20139;-80
2024/01/17 07:45:21;;;;;;;10.40;6.72;;;;;;;-0.87;100.00;99282.03;4778486;29;20045;-79
2024/01/17 07:47:47;;;;;;;9.90;7.20;;;;;;;-0.74;100.00;99282.84;4770364;29;20097;-79
2024/01/17 07:50:12;;;;;;;10.48;7.55;;;;;;;-0.70;100.00;99282.97;4777411;29;20099;-79
2024/01/17 07:52:38;;;;;;;16.48;7.10;;;;;;;-0.65;100.00;99278.06;4776343;29;20039;-79
2024/01/17 07:55:04;;;;;;;15.25;8.75;;;;;;;-1.19;100.00;99272.69;4771141;30;20050;-78
2024/01/17 07:57:30;;;;;;;14.40;6.57;;;;;;;-0.87;100.00;99271.03;4772853;29;20398;-78
2024/01/17 07:59:56;;;;;;;8.77;7.28;;;;;;;-0.84;100.00;99264.88;4773161;29;20027;-77
2024/01/17 08:02:22;;;;;;;13.07;7.85;;;;;;;-0.87;100.00;99254.56;4767369;30;20109;-77
2024/01/17 08:04:52;;;;;;;15.90;7.78;;;;;;;-1.12;100.00;99252.91;4771982;30;20063;-77
2024/01/17 08:07:17;;;;;;;10.45;8.48;;;;;;;-0.89;100.00;99253.28;4765636;30;20035;-77
2024/01/17 08:09:43;;;;;;;14.25;8.18;;;;;;;-0.74;100.00;99247.13;4772775;30;20511;-77
2024/01/17 08:12:08;;;;;;;14.32;8.55;;;;;;;-0.71;100.00;99240.97;4769090;29;20050;-78
2024/01/17 08:14:34;;;;;;;15.70;8.75;;;;;;;-0.83;100.00;99243.69;4773331;29;20035;-78
2024/01/17 08:17:01;;;;;;;14.30;7.10;;;;;;;-0.67;100.00;99241.09;4767805;29;20039;-76
2024/01/17 08:19:26;;;;;;;11.45;7.45;;;;;;;-0.80;100.00;99236.69;4775506;29;20105;-76
2024/01/17 08:21:53;;;;;;;11.15;7.57;;;;;;;-0.61;100.00;99236.97;4779971;29;20513;-77
2024/01/17 08:24:18;;;;;;;14.32;7.97;;;;;;;-0.63;100.00;99231.00;4771507;29;20059;-76
2024/01/17 08:26:44;;;;;;;10.98;7.88;;;;;;;-0.85;100.00;99230.28;4784193;29;20582;-77
2024/01/17 08:29:09;;;;;;;14.52;7.97;;;;;;;-0.68;100.00;99228.47;4768411;29;20044;-76
2024/01/17 08:31:35;;;;;;;10.55;7.60;;;;;;;-0.85;100.00;99221.25;4777108;29;20072;-77
2024/01/17 08:34:03;;;;;;;14.75;8.02;;;;;;;-0.66;100.00;99217.94;4779512;29;20042;-79
2024/01/17 08:36:31;;;;;;;12.85;7.82;;;;;;;-0.67;100.00;99208.09;4778451;29;20510;-77
2024/01/17 08:39:00;;;;;;;14.10;7.88;;;;;;;-0.73;100.00;99210.28;4773499;29;20526;-77
2024/01/17 08:41:25;;;;;;;14.52;7.95;;;;;;;-0.81;100.00;99191.94;4769358;29;20114;-76
2024/01/17 08:43:51;;;;;;;9.90;7.22;;;;;;;-0.88;100.00;99202.72;4773238;29;20130;-76
2024/01/17 08:46:16;;;;;;;16.98;7.68;;;;;;;-0.68;100.00;99199.03;4778304;29;20160;-76
2024/01/17 08:48:41;;;;;;;11.48;8.07;;;;;;;-0.96;100.00;99195.38;4773721;29;20035;-76
2024/01/17 08:51:08;;;;;;;14.80;7.78;;;;;;;-0.91;100.00;99200.63;4775994;29;20380;-77
2024/01/17 08:53:36;;;;;;;15.80;8.90;;;;;;;-0.89;100.00;99201.91;4777398;29;20038;-77
2024/01/17 08:56:04;;;;;;;12.20;7.32;;;;;;;-0.96;100.00;99198.94;4779561;29;20062;-77
2024/01/17 08:58:30;;;;;;;15.68;7.45;;;;;;;-0.68;100.00;99192.75;4775010;29;20035;-77
2024/01/17 09:00:55;;;;;;;16.85;9.77;;;;;;;-0.55;100.00;99190.81;4772735;30;20528;-77
2024/01/17 09:03:21;;;;;;;11.68;7.25;;;;;;;-0.54;100.00;99195.16;4780074;29;20050;-77
2024/01/17 09:05:46;;;;;;;14.77;7.65;;;;;;;-0.50;100.00;99196.09;4780169;29;20046;-77
2024/01/17 09:08:13;;;;;;;12.77;7.80;;;;;;;-0.41;100.00;99199.50;4775363;29;20455;-77
2024/01/17 09:10:39;;;;;;;13.68;8.95;;;;;;;-0.40;100.00;99190.13;4777947;29;20043;-77
2024/01/17 09:13:07;;;;;;;16.75;8.40;;;;;;;-0.62;100.00;99186.69;4777351;29;20092;-77
2024/01/17 09:15:32;;;;;;;12.73;8.32;;;;;;;-0.51;100.00;99180.72;4768155;29;20031;-77
2024/01/17 09:17:58;;;;;;;12.68;8.40;;;;;;;-0.47;100.00;99179.69;4777260;29;20088;-73
2024/01/17 09:20:24;;;;;;;13.45;7.93;;;;;;;-0.55;100.00;99172.34;4780700;29;20102;-75
2024/01/17 09:22:49;;;;;;;14.45;7.82;;;;;;;-0.63;100.00;99185.09;4775589;30;20039;-75
2024/01/17 09:25:15;;;;;;;15.77;8.02;;;;;;;-0.48;100.00;99182.78;4783283;29;20039;-74
2024/01/17 09:27:43;;;;;;;14.13;8.40;;;;;;;-0.69;100.00;99180.19;4782779;29;20045;-78
2024/01/17 09:30:09;;;;;;;13.95;8.45;;;;;;;-0.54;100.00;99170.44;4782722;29;20039;-76
2024/01/17 09:32:37;;;;;;;20.92;8.77;;;;;;;-0.44;100.00;99172.72;4776687;29;20050;-76
2024/01/17 09:35:03;;;;;;;16.15;9.43;;;;;;;-0.49;100.00;99170.97;4772972;29;20106;-78
2024/01/17 09:37:28;;;;;;;12.02;7.45;;;;;;;-0.52;100.00;99177.19;4778349;29;20474;-78
2024/01/17 09:39:53;;;;;;;15.20;8.35;;;;;;;-0.50;100.00;99158.41;4780751;29;20032;-78
2024/01/17 09:42:20;;;;;;;14.10;9.38;;;;;;;-0.53;100.00;99169.28;4781493;29;20460;-77
2024/01/17 09:44:47;;;;;;;15.60;8.77;;;;;;;-0.53;100.00;99163.78;4775227;30;20371;-77
2024/01/17 09:47:17;;;;;;;14.07;8.75;;;;;;;-0.51;100.00;99156.78;4775944;29;20063;-77
2024/01/17 09:49:43;;;;;;;17.20;8.73;;;;;;;-0.51;100.00;99155.97;4773415;30;20051;-78
2024/01/17 09:52:10;;;;;;;14.23;8.88;;;;;;;-0.39;100.00;99150.47;4773438;29;20088;-77
2024/01/17 09:54:42;;;;;;;16.13;8.65;;;;;;;-0.42;100.00;99149.22;4777390;29;20027;-78
2024/01/17 09:57:19;;;;;;;15.45;7.68;;;;;;;-0.30;100.00;99140.13;4787135;29;20494;-77
2024/01/17 09:59:48;;;;;;;15.10;8.88;;;;;;;-0.30;100.00;99140.13;4777155;30;20060;-76
2024/01/17 10:02:16;;;;;;;12.77;7.75;;;;;;;-0.30;100.00;99131.88;4777119;29;20047;-78
2024/01/17 10:04:41;;;;;;;11.40;7.28;;;;;;;-0.53;100.00;99139.03;4783513;29;20110;-76
2024/01/17 10:07:07;;;;;;;14.65;7.95;;;;;;;-0.27;100.00;99135.91;4778653;30;20486;-77
2024/01/17 10:09:33;;;;;;;12.98;7.90;;;;;;;-0.28;100.00;99137.84;4776066;29;20128;-79
2024/01/17 10:11:59;;;;;;;12.05;8.20;;;;;;;-0.30;100.00;99129.13;4776707;29;20487;-78
2024/01/17 10:14:25;;;;;;;14.07;7.63;;;;;;;-0.30;100.00;99129.13;4784992;29;20120;-76
2024/01/17 10:16:50;;;;;;;17.60;8.55;;;;;;;-0.19;100.00;99120.41;4785485;29;20085;-76
2024/01/17 10:19:18;;;;;;;12.65;8.45;;;;;;;-0.14;100.00;99120.16;4785837;29;20043;-77
2024/01/17 10:21:44;;;;;;;16.83;9.13;;;;;;;-0.04;100.00;99119.69;4782773;29;20035;-80
2024/01/17 10:24:10;;;;;;;12.30;7.70;;;;;;;0.07;100.00;99123.53;4774447;30;20046;-78
2024/01/17 10:26:40;;;;;;;14.98;8.75;;;;;;;-0.07;100.00;99126.66;4784086;29;20481;-76
2024/01/17 10:29:05;;;;;;;9.65;6.97;;;;;;;-0.01;100.00;99118.97;4782439;29;20387;-77
2024/01/17 10:31:30;;;;;;;13.82;8.75;;;;;;;0.06;100.00;99130.16;4772915;29;20086;-79
2024/01/17 10:33:56;;;;;;;15.32;8.18;;;;;;;0.07;100.00;99130.97;4778577;29;20166;-76
2024/01/17 10:36:22;;;;;;;13.18;8.45;;;;;;;0.11;100.00;99131.88;4782612;29;20383;-76
2024/01/17 10:38:48;;;;;;;16.13;8.40;;;;;;;0.08;100.00;99116.84;4788996;29;20031;-76
2024/01/17 10:41:13;;;;;;;14.95;8.65;;;;;;;0.07;100.00;99114.47;4774323;29;20110;-76
2024/01/17 10:44:00;;;;;;;15.38;8.18;;;;;;;-0.01;100.00;99121.72;4796328;29;21450;-76
2024/01/17 10:46:29;;;;;;;14.80;7.93;;;;;;;-0.01;100.00;99111.50;4776456;29;20039;-75
2024/01/17 10:48:56;;;;;;;13.18;8.15;;;;;;;0.10;100.00;99098.03;4772696;29;20047;-75
2024/01/17 10:51:24;;;;;;;10.60;7.53;;;;;;;0.16;100.00;99098.59;4777205;29;20146;-75
2024/01/17 10:53:55;;;;;;;10.68;7.18;;;;;;;-0.10;100.00;99096.31;4781451;29;20031;-75
2024/01/17 10:56:22;;;;;;;12.70;8.05;;;;;;;-0.19;100.00;99095.66;4779185;29;20266;-76
2024/01/17 10:58:51;;;;;;;15.18;8.15;;;;;;;0.05;100.00;99101.06;4776031;29;20376;-76
2024/01/17 11:01:23;;;;;;;12.13;7.30;;;;;;;0.17;100.00;99090.00;4780326;29;20024;-75
2024/01/17 11:03:52;;;;;;;14.07;7.40;;;;;;;0.21;100.00;99092.81;4779855;29;20507;-75
2024/01/17 11:06:19;;;;;;;13.50;8.05;;;;;;;0.19;100.00;99079.44;4779132;30;20035;-75
2024/01/17 11:08:46;;;;;;;16.17;7.57;;;;;;;0.10;100.00;99081.53;4779892;29;20039;-75
2024/01/17 11:11:12;;;;;;;16.30;8.65;;;;;;;-0.07;100.00;99070.84;4779434;29;20096;-75
2024/01/17 11:13:38;;;;;;;14.25;7.35;;;;;;;0.19;100.00;99057.44;4776306;30;20410;-75
2024/01/17 11:16:06;;;;;;;16.10;8.55;;;;;;;0.19;100.00;99049.19;4779114;29;20186;-75
2024/01/17 11:18:35;;;;;;;11.82;8.35;;;;;;;0.24;100.00;99052.81;4779034;30;20039;-75
2024/01/17 11:21:01;;;;;;;12.45;7.20;;;;;;;0.16;100.00;99054.56;4780866;29;20028;-74
2024/01/17 11:23:58;;;;;;;12.18;8.88;;;;;;;0.20;100.00;99048.00;4780955;30;20035;-75
2024/01/17 11:26:45;;;;;;;14.57;6.65;;;;;;;0.32;100.00;99049.09;4774807;29;20036;-75
2024/01/17 11:29:26;;;;;;;14.10;7.05;;;;;;;0.38;100.00;99053.16;4777129;29;20118;-74
2024/01/17 11:32:13;;;;;;;16.10;8.55;;;;;;;0.41;100.00;99041.47;4791726;29;20035;-76
2024/01/17 11:34:39;;;;;;;12.18;7.95;;;;;;;0.40;100.00;99034.34;4778536;30;20086;-76
2024/01/17 11:37:04;;;;;;;13.07;8.20;;;;;;;0.39;100.00;99041.03;4772676;29;20482;-76
2024/01/17 11:39:30;;;;;;;12.15;7.65;;;;;;;0.41;100.00;99024.94;4777119;29;20035;-76
2024/01/17 11:41:56;;;;;;;13.13;8.18;;;;;;;0.14;100.00;99021.91;4775712;29;20027;-76
2024/01/17 11:44:22;;;;;;;16.13;8.40;;;;;;;0.30;100.00;99012.88;4774217;30;20058;-76
2024/01/17 11:46:51;;;;;;;14.38;7.63;;;;;;;-0.07;100.00;99010.34;4795317;29;20531;-75
2024/01/17 11:49:46;;;;;;;10.50;6.97;;;;;;;0.31;100.00;99004.25;4775113;29;20039;-75
2024/01/17 11:52:29;;;;;;;15.10;7.47;;;;;;;0.36;100.00;99006.75;4787504;29;20154;-73
2024/01/17 11:54:55;;;;;;;14.88;7.47;;;;;;;0.48;100.00;99003.09;4775359;29;20061;-74
2024/01/17 11:57:20;;;;;;;10.82;7.70;;;;;;;0.53;100.00;99011.09;4775882;30;20031;-76
2024/01/17 12:00:09;;;;;;;16.83;7.70;;;;;;;0.56;100.00;99001.31;4775683;29;20118;-76
2024/01/17 12:02:40;;;;;;;15.50;8.60;;;;;;;0.56;100.00;98990.31;4779900;29;20039;-76
2024/01/17 12:05:07;;;;;;;12.85;7.45;;;;;;;0.65;100.00;98992.88;4777098;29;20125;-76
2024/01/17 12:07:37;;;;;;;11.63;7.90;;;;;;;0.63;100.00;98981.41;4776580;30;20468;-76
2024/01/17 12:10:11;;;;;;;12.93;7.72;;;;;;;0.55;100.00;98975.75;4774542;30;20034;-76
2024/01/17 12:12:37;;;;;;;15.30;8.52;;;;;;;0.65;100.00;98968.09;4777526;29;20478;-76
2024/01/17 12:15:09;;;;;;;16.20;8.20;;;;;;;0.64;100.00;98966.50;4779499;29;20042;-75
2024/01/17 12:17:36;;;;;;;12.73;8.17;;;;;;;0.64;100.00;98952.75;4774053;29;20027;-75
2024/01/17 12:20:02;;;;;;;12.10;8.70;;;;;;;0.63;100.00;98948.38;4773421;30;20891;-75
2024/01/17 12:22:28;;;;;;;14.48;7.30;;;;;;;0.61;100.00;98934.97;4778640;29;20027;-75
2024/01/17 12:24:53;;;;;;;15.15;8.18;;;;;;;0.56;100.00;98929.75;4775493;30;20410;-75
2024/01/17 12:27:19;;;;;;;20.63;8.95;;;;;;;0.58;100.00;98925.47;4776858;29;20027;-75
2024/01/17 12:29:50;;;;;;;10.70;6.90;;;;;;;0.69;100.00;98931.22;4776726;29;20040;-75
2024/01/17 12:32:17;;;;;;;10.52;7.70;;;;;;;0.65;100.00;98938.59;4771056;29;20119;-75
2024/01/17 12:34:42;;;;;;;14.68;7.75;;;;;;;0.75;100.00;98934.50;4776769;29;20142;-76
2024/01/17 12:37:07;;;;;;;18.95;9.85;;;;;;;0.77;100.00;98941.22;4778849;29;20450;-77
2024/01/17 12:39:36;;;;;;;15.98;7.60;;;;;;;0.72;100.00;98925.00;4782264;29;20034;-78
2024/01/17 12:42:03;;;;;;;11.65;8.05;;;;;;;0.73;100.00;98920.28;4784334;29;20491;-76
2024/01/17 12:44:30;;;;;;;15.70;8.60;;;;;;;0.77;100.00;98919.19;4776267;30;20034;-77
2024/01/17 12:46:56;;;;;;;16.73;7.72;;;;;;;0.77;100.00;98915.66;4769236;29;20052;-77
2024/01/17 12:49:21;;;;;;;12.73;7.30;;;;;;;0.79;100.00;98918.84;4771933;30;20035;-76
2024/01/17 12:51:47;;;;;;;11.63;7.75;;;;;;;0.76;100.00;98914.88;4775810;29;20394;-76
2024/01/17 12:54:17;;;;;;;12.68;7.40;;;;;;;0.78;100.00;98906.22;4778161;29;20042;-75
2024/01/17 12:56:43;;;;;;;15.52;8.82;;;;;;;0.81;100.00;98905.50;4774939;29;20035;-79
2024/01/17 12:59:08;;;;;;;14.25;8.07;;;;;;;0.80;100.00;98901.16;4779391;29;20054;-78
2024/01/17 13:01:40;;;;;;;13.23;7.22;;;;;;;0.92;100.00;98895.50;4773951;30;20118;-78
2024/01/17 13:04:07;;;;;;;11.18;7.63;;;;;;;0.81;100.00;98889.00;4779527;29;20047;-80
2024/01/17 13:06:47;;;;;;;14.80;8.07;;;;;;;0.86;100.00;98885.94;4777557;29;20043;-76
2024/01/17 13:09:20;;;;;;;14.18;8.43;;;;;;;0.87;100.00;98884.78;4775588;29;20077;-77
2024/01/17 13:11:53;;;;;;;15.88;8.05;;;;;;;0.84;100.00;98877.25;4774259;29;20074;-77
2024/01/17 13:14:21;;;;;;;17.30;9.15;;;;;;;0.85;100.00;98867.84;4777036;29;20046;-77
2024/01/17 13:16:47;;;;;;;13.02;7.60;;;;;;;0.86;100.00;98874.91;4776505;29;20040;-77
2024/01/17 13:19:16;;;;;;;13.57;7.72;;;;;;;0.85;100.00;98867.03;4776340;29;20603;-76
2024/01/17 13:21:42;;;;;;;17.85;8.88;;;;;;;0.87;100.00;98860.00;4774842;29;20035;-77
2024/01/17 13:24:08;;;;;;;11.98;7.60;;;;;;;0.81;100.00;98853.19;4776979;29;20524;-77
2024/01/17 13:26:35;;;;;;;13.60;8.65;;;;;;;0.86;100.00;98841.88;4775674;29;20131;-77
2024/01/17 13:29:05;;;;;;;11.60;7.18;;;;;;;0.82;100.00;98857.53;4779347;29;20093;-77
2024/01/17 13:31:40;;;;;;;17.83;8.80;;;;;;;0.87;100.00;98851.75;4777957;29;20402;-77
2024/01/17 13:34:06;;;;;;;15.05;9.20;;;;;;;0.87;100.00;98843.47;4777452;29;20097;-77
2024/01/17 13:36:32;;;;;;;13.02;8.00;;;;;;;0.86;100.00;98846.59;4780160;29;20422;-77
2024/01/17 13:38:59;;;;;;;16.40;8.30;;;;;;;0.87;100.00;98853.72;4774961;30;20047;-77
2024/01/17 13:41:26;;;;;;;18.27;9.45;;;;;;;0.75;100.00;98849.13;4781196;29;20494;-76
2024/01/17 13:43:53;;;;;;;15.73;9.20;;;;;;;0.77;100.00;98852.31;4778204;29;20523;-76
2024/01/17 13:46:19;;;;;;;12.40;7.63;;;;;;;1.70;100.00;98845.00;4778753;29;20031;-77
2024/01/17 13:48:46;;;;;;;20.35;9.00;;;;;;;1.17;100.00;98851.16;4773544;29;20059;-77
2024/01/17 13:51:12;;;;;;;14.98;8.63;;;;;;;0.90;100.00;98841.94;4775924;29;20553;-78
2024/01/17 13:53:41;;;;;;;15.40;8.57;;;;;;;0.88;100.00;98845.06;4780638;29;20031;-76
2024/01/17 13:56:09;;;;;;;19.00;9.77;;;;;;;0.83;100.00;98847.31;4777331;29;20031;-76
2024/01/17 13:58:34;;;;;;;9.88;7.07;;;;;;;0.87;100.00;98840.72;4774911;30;20035;-76
2024/01/17 14:01:04;;;;;;;14.18;8.30;;;;;;;0.92;100.00;98834.13;4771748;30;20032;-76
2024/01/17 14:03:29;;;;;;;18.88;9.50;;;;;;;0.87;100.00;98843.47;4779777;29;20112;-76
2024/01/17 14:05:55;;;;;;;16.42;8.80;;;;;;;0.88;100.00;98844.28;4771649;30;20031;-76
2024/01/17 14:08:20;;;;;;;21.27;9.43;;;;;;;0.87;100.00;98842.69;4773153;30;21267;-76
2024/01/17 14:10:45;;;;;;;16.92;10.00;;;;;;;0.88;100.00;98833.25;4780660;29;20044;-75
2024/01/17 14:13:13;;;;;;;12.88;9.05;;;;;;;0.86;100.00;98841.88;4779314;29;20114;-76
2024/01/17 14:15:40;;;;;;;16.42;8.82;;;;;;;0.87;100.00;98837.97;4778404;29;20039;-76
2024/01/17 14:18:06;;;;;;;15.85;8.73;;;;;;;0.89;100.00;98852.19;4779910;30;20035;-76
2024/01/17 14:20:31;;;;;;;14.15;8.50;;;;;;;0.90;100.00;98842.75;4778829;29;20402;-76
2024/01/17 14:22:56;;;;;;;14.60;9.20;;;;;;;0.87;100.00;98848.19;4773100;29;20073;-76
2024/01/17 14:25:22;;;;;;;12.52;9.15;;;;;;;0.88;100.00;98841.50;4780479;29;20039;-75
2024/01/17 14:27:48;;;;;;;12.15;8.52;;;;;;;0.94;100.00;98843.63;4775461;29;20507;-76
2024/01/17 14:30:14;;;;;;;12.77;9.00;;;;;;;0.91;100.00;98844.34;4772458;29;20038;-76
2024/01/17 14:32:41;;;;;;;21.05;10.40;;;;;;;1.00;100.00;98844.91;4776202;29;20028;-76
2024/01/17 14:35:09;;;;;;;18.17;9.65;;;;;;;0.83;100.00;98848.13;4779368;30;20065;-76
2024/01/17 14:37:37;;;;;;;15.93;9.85;;;;;;;0.90;100.00;98853.75;4782102;29;20041;-76
2024/01/17 14:40:03;;;;;;;14.32;8.77;;;;;;;0.88;100.00;98844.28;4774407;29;20031;-76
2024/01/17 14:42:29;;;;;;;19.55;9.85;;;;;;;0.97;100.00;98837.38;4777325;29;20578;-76
2024/01/17 14:44:55;;;;;;;19.10;8.80;;;;;;;1.01;100.00;98838.25;4779809;29;20110;-76
2024/01/17 14:47:20;;;;;;;16.63;8.07;;;;;;;0.91;100.00;98843.56;4771756;29;20047;-76
2024/01/17 14:49:46;;;;;;;13.45;9.38;;;;;;;0.84;100.00;98840.66;4776530;30;20043;-76
2024/01/17 14:52:11;;;;;;;14.77;8.38;;;;;;;0.87;100.00;98846.22;4781262;29;20197;-77
2024/01/17 14:54:37;;;;;;;16.92;9.27;;;;;;;0.83;100.00;98837.09;4776522;29;20039;-78
2024/01/17 14:57:02;;;;;;;17.98;9.65;;;;;;;0.85;100.00;98842.25;4775822;29;20182;-77
2024/01/17 14:59:28;;;;;;;20.58;9.55;;;;;;;0.88;100.00;98850.56;4779861;29;20040;-76
2024/01/17 15:01:53;;;;;;;13.07;8.05;;;;;;;0.95;100.00;98856.25;4776757;29;20039;-76
2024/01/17 15:04:18;;;;;;;12.20;8.02;;;;;;;0.90;100.00;98851.00;4774747;29;20101;-76
2024/01/17 15:06:44;;;;;;;15.63;8.95;;;;;;;0.88;100.00;98842.31;4781218;29;20073;-76
2024/01/17 15:09:13;;;;;;;11.95;7.80;;;;;;;0.84;100.00;98841.44;4781327;29;20047;-76
2024/01/17 15:11:45;;;;;;;13.77;8.85;;;;;;;0.81;100.00;98839.41;4775443;29;20035;-77
2024/01/17 15:14:11;;;;;;;13.70;8.85;;;;;;;0.80;100.00;98841.38;4779056;29;20046;-76
2024/01/17 15:16:37;;;;;;;15.07;8.38;;;;;;;0.81;100.00;98823.69;4777505;29;20039;-75
2024/01/17 15:19:03;;;;;;;14.02;8.43;;;;;;;0.81;100.00;98826.44;4774830;30;20058;-76
2024/01/17 15:21:29;;;;;;;16.67;9.80;;;;;;;0.85;100.00;98834.00;4777795;29;20105;-75
2024/01/17 15:23:55;;;;;;;17.42;9.95;;;;;;;0.82;100.00;98818.97;4774319;29;20054;-76
2024/01/17 15:26:20;;;;;;;21.05;10.07;;;;;;;0.81;100.00;98828.41;4773154;29;20039;-76
2024/01/17 15:28:46;;;;;;;15.00;8.82;;;;;;;0.84;100.00;98833.16;4775725;29;20049;-76
2024/01/17 15:31:11;;;;;;;14.23;9.68;;;;;;;0.98;100.00;98816.16;4771505;29;20042;-76
2024/01/17 15:33:38;;;;;;;14.63;8.95;;;;;;;0.96;100.00;98812.97;4789760;29;20035;-76
2024/01/17 15:36:12;;;;;;;20.48;9.75;;;;;;;0.92;100.00;98823.91;4772076;29;20043;-76
2024/01/17 15:38:42;;;;;;;15.43;8.88;;;;;;;1.17;100.00;98826.34;4777283;29;20058;-76
2024/01/17 15:41:10;;;;;;;12.20;8.45;;;;;;;0.98;100.00;98822.44;4775997;29;20033;-76
2024/01/17 15:43:36;;;;;;;14.15;8.57;;;;;;;0.97;100.00;98839.31;4772839;29;20035;-76
2024/01/17 15:46:02;;;;;;;13.32;8.65;;;;;;;0.91;100.00;98838.84;4767820;29;20494;-76
2024/01/17 15:48:28;;;;;;;18.20;9.07;;;;;;;0.91;100.00;98833.34;4773891;29;20048;-76
2024/01/17 15:50:54;;;;;;;18.38;10.20;;;;;;;0.88;100.00;98839.56;4769323;29;20069;-76
2024/01/17 15:53:19;;;;;;;12.70;9.63;;;;;;;0.90;100.00;98840.00;4770998;29;20036;-79
2024/01/17 15:55:45;;;;;;;15.57;10.05;;;;;;;0.85;100.00;98840.28;4775921;29;20091;-77
2024/01/17 15:58:13;;;;;;;13.60;8.20;;;;;;;0.86;100.00;98841.88;4776776;29;20043;-77
2024/01/17 16:00:42;;;;;;;16.77;9.13;;;;;;;0.87;100.00;98843.47;4772717;29;20446;-77
2024/01/17 16:03:11;;;;;;;15.23;8.70;;;;;;;0.88;100.00;98849.78;4777915;29;20560;-77
2024/01/17 16:05:37;;;;;;;13.05;8.68;;;;;;;0.89;100.00;98846.66;4776244;30;20070;-78
2024/01/17 16:08:03;;;;;;;10.80;8.32;;;;;;;0.90;100.00;98853.75;4780193;29;20074;-78
2024/01/17 16:10:29;;;;;;;14.85;9.75;;;;;;;0.93;100.00;98853.06;4776085;29;20039;-77
2024/01/17 16:12:55;;;;;;;13.98;8.63;;;;;;;0.92;100.00;98840.41;4775517;29;20532;-77
2024/01/17 16:15:20;;;;;;;20.33;10.10;;;;;;;0.91;100.00;98844.34;4772419;29;20031;-77
2024/01/17 16:17:46;;;;;;;18.25;9.55;;;;;;;0.91;100.00;98847.09;4772125;29;20122;-77
2024/01/17 16:20:12;;;;;;;13.35;8.30;;;;;;;0.94;100.00;98835.34;4773364;29;20031;-77
2024/01/17 16:22:38;;;;;;;10.93;9.07;;;;;;;0.93;100.00;98839.28;4773107;29;20522;-76
2024/01/17 16:25:05;;;;;;;18.80;8.77;;;;;;;0.91;100.00;98844.34;4781001;29;20035;-77
2024/01/17 16:27:31;;;;;;;14.13;8.98;;;;;;;0.96;100.00;98854.28;4773865;29;20042;-79
2024/01/17 16:29:57;;;;;;;14.85;9.05;;;;;;;0.94;100.00;98843.63;4778600;29;20040;-77
2024/01/17 16:32:22;;;;;;;16.58;9.20;;;;;;;0.93;100.00;98842.03;4774020;29;20046;-78
2024/01/17 16:34:47;;;;;;;14.32;9.35;;;;;;;0.89;100.00;98846.66;4778800;29;20034;-78
2024/01/17 16:37:13;;;;;;;15.43;9.02;;;;;;;0.89;100.00;98830.13;4767239;29;20044;-79
2024/01/17 16:39:38;;;;;;;14.90;8.95;;;;;;;0.91;100.00;98844.34;4772068;30;20452;-79
2024/01/17 16:42:04;;;;;;;10.63;7.65;;;;;;;0.96;100.00;98857.81;4776565;30;20035;-79
2024/01/17 16:44:31;;;;;;;15.68;8.93;;;;;;;0.93;100.00;98842.03;4770594;29;20035;-78
2024/01/17 16:46:57;;;;;;;17.25;9.38;;;;;;;0.94;100.00;98854.63;4773156;29;20055;-78
2024/01/17 16:49:22;;;;;;;12.50;8.40;;;;;;;0.94;100.00;98853.84;4784405;29;20347;-79
2024/01/17 16:51:47;;;;;;;15.38;9.30;;;;;;;0.95;100.00;98853.47;4778462;29;20486;-79
2024/01/17 16:54:13;;;;;;;13.93;8.43;;;;;;;0.92;100.00;98862.47;4781155;29;20034;-77
2024/01/17 16:56:38;;;;;;;14.45;10.27;;;;;;;0.91;100.00;98855.38;4778327;30;20103;-78
2024/01/17 16:59:03;;;;;;;16.75;11.85;;;;;;;0.96;100.00;98859.78;4783527;29;20043;-78
2024/01/17 17:01:29;;;;;;;16.90;9.60;;;;;;;0.93;100.00;98853.06;4773927;29;20083;-78
2024/01/17 17:03:54;;;;;;;19.05;10.80;;;;;;;0.93;100.00;98864.06;4771805;29;20035;-76
2024/01/17 17:06:19;;;;;;;10.98;8.75;;;;;;;0.90;100.00;98855.72;4776551;29;20027;-78